Time;durP1;ratioP1;P1;durP2;ratioP2;P2;SDS_P1;SDS_P2;PMS_P1;PMS_P2;Temp;Humidity;BMP_temperature;BMP_pressure;BME280_temperature;BME280_humidity;BME280_pressure;Samples;Min_cycle;Max_cycle;Signal;HPM_P1;HPM_P2
2023/05/14 00:00:06;;;;;;;8.00;5.90;;;;;;;27.21;26.69;100755.00;106952;1270;61175;-66
2023/05/14 00:02:33;;;;;;;9.80;6.50;;;;;;;27.09;26.73;100752.92;106946;1271;62373;-65
2023/05/14 00:04:59;;;;;;;18.10;9.40;;;;;;;27.06;27.43;100757.35;106967;1270;75824;-67
2023/05/14 00:07:29;;;;;;;12.20;7.40;;;;;;;27.13;27.22;100756.61;107022;1270;72414;-65
2023/05/14 00:09:57;;;;;;;10.20;7.10;;;;;;;27.21;27.27;100762.20;106840;1273;74674;-66
2023/05/14 00:12:25;;;;;;;9.50;6.70;;;;;;;27.30;27.11;100763.50;106970;1271;60558;-66
2023/05/14 00:14:52;;;;;;;9.80;7.10;;;;;;;27.26;26.84;100764.02;106988;1270;61619;-66
2023/05/14 00:17:19;;;;;;;10.70;6.30;;;;;;;27.26;27.03;100764.81;107012;1270;74616;-66
2023/05/14 00:19:46;;;;;;;15.70;7.40;;;;;;;27.36;26.84;100767.75;107000;1269;72299;-66
2023/05/14 00:22:13;;;;;;;14.20;7.10;;;;;;;27.54;26.76;100769.06;106942;1270;72847;-66
2023/05/14 00:24:40;;;;;;;12.70;7.30;;;;;;;27.59;26.71;100773.42;106910;1270;61391;-66
2023/05/14 00:27:07;;;;;;;11.20;7.50;;;;;;;27.52;27.10;100775.63;106818;1270;61290;-68
2023/05/14 00:29:33;;;;;;;11.70;6.70;;;;;;;27.89;26.65;100776.64;106886;1271;76238;-67
2023/05/14 00:32:01;;;;;;;12.80;7.80;;;;;;;27.91;26.36;100772.96;106935;1273;69469;-65
2023/05/14 00:34:28;;;;;;;15.70;7.30;;;;;;;27.59;26.73;100773.08;106927;1275;73658;-66
2023/05/14 00:36:55;;;;;;;11.00;6.90;;;;;;;27.62;26.77;100773.52;106817;1270;60428;-65
2023/05/14 00:39:22;;;;;;;11.50;7.80;;;;;;;27.68;26.73;100771.06;106882;1270;60509;-66
2023/05/14 00:41:49;;;;;;;9.50;6.10;;;;;;;27.91;26.37;100771.19;107026;1271;74830;-65
2023/05/14 00:44:15;;;;;;;11.90;6.40;;;;;;;27.57;26.61;100771.77;106889;1270;70590;-66
2023/05/14 00:46:42;;;;;;;14.20;7.10;;;;;;;27.61;26.61;100777.61;106982;1270;71825;-68
2023/05/14 00:49:10;;;;;;;8.30;6.10;;;;;;;27.52;26.85;100782.93;106737;1271;60681;-66
2023/05/14 00:51:37;;;;;;;10.70;6.20;;;;;;;27.58;26.68;100779.50;106854;1270;60421;-68
2023/05/14 00:54:05;;;;;;;14.40;6.40;;;;;;;27.57;26.96;100781.80;106946;1270;75254;-66
2023/05/14 00:56:33;;;;;;;8.10;6.60;;;;;;;27.73;27.04;100783.28;106826;1270;72792;-67
2023/05/14 00:59:00;;;;;;;7.40;3.80;;;;;;;27.54;25.86;100784.14;106767;1270;72910;-68
2023/05/14 01:01:27;;;;;;;8.10;4.40;;;;;;;26.55;23.90;100762.19;106716;1272;60411;-66
2023/05/14 01:03:56;;;;;;;11.50;5.50;;;;;;;27.04;25.22;100766.31;106798;1273;62979;-66
2023/05/14 01:06:36;;;;;;;7.30;4.80;;;;;;;27.55;25.81;100758.13;106710;1273;76132;-66
2023/05/14 01:09:12;;;;;;;6.60;3.10;;;;;;;27.83;24.64;100750.73;106797;1273;71141;-67
2023/05/14 01:11:58;;;;;;;14.00;4.70;;;;;;;27.70;24.09;100756.06;106794;1273;74936;-66
2023/05/14 01:15:03;;;;;;;8.00;5.60;;;;;;;28.02;24.63;100758.58;106791;1273;62814;-65
2023/05/14 01:17:31;;;;;;;10.20;5.80;;;;;;;28.19;25.24;100762.04;106825;1272;62177;-66
2023/05/14 01:19:59;;;;;;;9.30;5.70;;;;;;;28.02;26.04;100762.50;106781;1273;75234;-64
2023/05/14 01:22:26;;;;;;;13.70;6.20;;;;;;;27.86;26.57;100768.42;106517;1273;71808;-66
2023/05/14 01:24:52;;;;;;;13.60;5.90;;;;;;;28.05;26.52;100769.42;106657;1278;74791;-66
2023/05/14 01:27:41;;;;;;;10.60;6.90;;;;;;;28.12;26.19;100769.64;106749;1272;60562;-66
2023/05/14 01:30:32;;;;;;;13.00;6.30;;;;;;;27.83;26.47;100769.47;106829;1270;61364;-66
2023/05/14 01:33:02;;;;;;;9.60;6.40;;;;;;;27.65;26.72;100770.92;106925;1270;76000;-66
2023/05/14 01:35:29;;;;;;;10.10;6.40;;;;;;;27.65;26.61;100766.19;106856;1270;71832;-67
2023/05/14 01:37:58;;;;;;;11.90;5.70;;;;;;;27.62;26.42;100765.77;106833;1270;74144;-67
2023/05/14 01:40:26;;;;;;;13.30;6.30;;;;;;;27.76;26.37;100766.88;107023;1270;62826;-67
2023/05/14 01:42:53;;;;;;;10.00;6.40;;;;;;;27.77;26.41;100767.09;106928;1270;62884;-66
2023/05/14 01:45:20;;;;;;;9.00;7.20;;;;;;;27.88;26.57;100766.14;106929;1270;75993;-66
2023/05/14 01:47:47;;;;;;;9.50;6.50;;;;;;;27.78;26.95;100762.85;106879;1270;72362;-67
2023/05/14 01:50:15;;;;;;;9.30;6.20;;;;;;;27.71;26.92;100763.21;106814;1270;73428;-66
2023/05/14 01:52:42;;;;;;;9.20;5.50;;;;;;;27.49;27.10;100767.08;107000;1270;63237;-66
2023/05/14 01:55:09;;;;;;;9.20;6.20;;;;;;;27.54;26.59;100761.83;106820;1270;60645;-66
2023/05/14 01:57:36;;;;;;;11.60;6.80;;;;;;;27.42;26.92;100762.54;106810;1270;73288;-67
2023/05/14 02:00:04;;;;;;;12.70;6.80;;;;;;;27.29;26.78;100762.28;106890;1270;72706;-67
2023/05/14 02:02:39;;;;;;;11.50;6.60;;;;;;;27.38;26.27;100762.38;106948;1270;73682;-66
2023/05/14 02:05:08;;;;;;;9.10;5.70;;;;;;;27.56;26.51;100756.04;106817;1270;64022;-65
2023/05/14 02:07:34;;;;;;;17.90;7.00;;;;;;;27.73;26.27;100753.98;106967;1270;62016;-64
2023/05/14 02:10:01;;;;;;;11.30;6.30;;;;;;;27.74;26.47;100749.38;106680;1270;75615;-68
2023/05/14 02:12:28;;;;;;;12.90;6.90;;;;;;;27.77;26.61;100752.38;106832;1270;70377;-67
2023/05/14 02:14:55;;;;;;;11.10;6.80;;;;;;;27.80;26.56;100750.63;106865;1273;74831;-67
2023/05/14 02:17:24;;;;;;;14.20;6.60;;;;;;;27.77;27.00;100755.80;106783;1270;61203;-66
2023/05/14 02:19:51;;;;;;;8.00;6.60;;;;;;;27.50;27.52;100754.12;106695;1270;61468;-66
2023/05/14 02:22:18;;;;;;;11.10;6.50;;;;;;;27.27;27.81;100755.13;106832;1270;75661;-67
2023/05/14 02:24:45;;;;;;;8.50;6.30;;;;;;;27.27;27.83;100753.67;106801;1270;71105;-66
2023/05/14 02:27:12;;;;;;;9.10;6.50;;;;;;;27.32;27.56;100752.23;106963;1270;73495;-66
2023/05/14 02:29:39;;;;;;;9.50;6.00;;;;;;;27.33;27.53;100751.31;107038;1270;62289;-66
2023/05/14 02:32:06;;;;;;;10.30;5.90;;;;;;;27.46;27.34;100745.55;106827;1270;62494;-65
2023/05/14 02:34:33;;;;;;;12.50;6.40;;;;;;;27.36;27.42;100745.98;107025;1270;76054;-65
2023/05/14 02:37:00;;;;;;;11.10;6.50;;;;;;;27.26;27.59;100741.66;107026;1270;73038;-64
2023/05/14 02:39:27;;;;;;;8.70;6.40;;;;;;;27.28;27.68;100744.70;107029;1270;71916;-65
2023/05/14 02:41:54;;;;;;;11.30;6.90;;;;;;;27.38;27.70;100745.02;107004;1270;63980;-65
2023/05/14 02:44:20;;;;;;;10.80;6.10;;;;;;;27.47;27.64;100741.46;107012;1270;62550;-66
2023/05/14 02:46:47;;;;;;;11.20;5.90;;;;;;;27.45;27.70;100744.89;106959;1270;74419;-66
2023/05/14 02:49:14;;;;;;;9.30;5.50;;;;;;;27.65;27.80;100741.30;106905;1270;72543;-66
2023/05/14 02:51:42;;;;;;;10.10;6.70;;;;;;;27.60;27.76;100736.70;106791;1270;74996;-66
2023/05/14 02:54:08;;;;;;;13.30;7.00;;;;;;;28.01;27.76;100730.06;106962;1270;62561;-66
2023/05/14 02:56:35;;;;;;;10.90;6.40;;;;;;;28.12;28.03;100735.85;106994;1270;62533;-66
2023/05/14 02:59:03;;;;;;;12.50;5.80;;;;;;;27.93;27.85;100740.77;106925;1270;75587;-67
2023/05/14 03:01:30;;;;;;;13.00;6.50;;;;;;;28.08;27.80;100742.39;106752;1273;72018;-67
2023/05/14 03:03:58;;;;;;;16.40;8.80;;;;;;;28.18;27.81;100742.67;106788;1272;71688;-65
2023/05/14 03:06:25;;;;;;;17.20;8.40;;;;;;;28.29;27.35;100739.45;106787;1276;63891;-66
2023/05/14 03:08:51;;;;;;;17.30;7.20;;;;;;;28.54;27.01;100740.80;106634;1278;60731;-67
2023/05/14 03:13:51;;;;;;;11.90;6.50;;;;;;;24.88;32.72;100750.83;105034;1290;600788;-66
2023/05/14 03:16:18;;;;;;;11.70;6.00;;;;;;;26.92;30.21;100752.52;107406;1263;59145;-66
2023/05/14 03:18:45;;;;;;;14.00;7.20;;;;;;;27.58;28.90;100749.05;107356;1265;62414;-66
2023/05/14 03:21:12;;;;;;;16.00;6.80;;;;;;;27.72;28.65;100752.50;107333;1269;72759;-67
2023/05/14 03:23:39;;;;;;;17.80;7.60;;;;;;;28.11;27.87;100757.64;107232;1270;72755;-68
2023/05/14 03:26:07;;;;;;;17.50;7.50;;;;;;;28.72;27.41;100752.64;107320;1267;72673;-68
2023/05/14 03:28:34;;;;;;;17.00;8.50;;;;;;;29.08;27.01;100745.50;107270;1261;209200;-67
2023/05/14 03:31:00;;;;;;;18.30;8.70;;;;;;;29.92;26.43;100747.13;107396;1261;62506;-69
2023/05/14 03:33:30;;;;;;;27.50;10.10;;;;;;;30.70;25.61;100745.62;107494;1261;74401;-68
2023/05/14 03:35:56;;;;;;;25.30;10.00;;;;;;;31.62;24.74;100743.80;107364;1269;70078;-67
2023/05/14 03:38:23;;;;;;;19.70;9.10;;;;;;;31.76;24.67;100739.77;107404;1261;73492;-66
2023/05/14 03:40:50;;;;;;;12.40;6.50;;;;;;;32.16;24.26;100738.02;107541;1268;61447;-68
2023/05/14 03:43:17;;;;;;;5.80;4.70;;;;;;;32.65;22.95;100737.38;107460;1261;62116;-67
2023/05/14 03:45:44;;;;;;;6.30;5.00;;;;;;;33.08;22.54;100734.84;107430;1269;74996;-66
2023/05/14 03:48:11;;;;;;;11.20;4.80;;;;;;;33.26;22.79;100738.95;107403;1269;72229;-67
2023/05/14 03:50:38;;;;;;;7.80;4.40;;;;;;;33.95;21.65;100735.02;107440;1263;74115;-67
2023/05/14 03:53:05;;;;;;;6.40;4.30;;;;;;;34.42;21.13;100741.95;107800;1263;59958;-67
2023/05/14 03:55:32;;;;;;;6.80;4.20;;;;;;;35.01;20.24;100735.67;108058;1254;59496;-66
2023/05/14 03:57:59;;;;;;;8.40;4.20;;;;;;;35.41;19.56;100733.34;107923;1259;66600;-68
2023/05/14 04:00:26;;;;;;;7.20;4.40;;;;;;;35.15;19.47;100737.58;108067;1255;64109;-67
2023/05/14 04:02:53;;;;;;;7.80;3.60;;;;;;;35.39;19.17;100734.40;107935;1254;66131;-67
2023/05/14 04:05:22;;;;;;;7.40;4.20;;;;;;;35.78;18.65;100735.23;108033;1256;59973;-65
2023/05/14 04:07:48;;;;;;;6.20;3.80;;;;;;;36.29;18.18;100734.05;108287;1250;59408;-68
2023/05/14 04:10:15;;;;;;;10.00;4.10;;;;;;;37.05;17.76;100737.33;108278;1258;66729;-66
2023/05/14 04:12:42;;;;;;;10.70;4.00;;;;;;;37.23;17.47;100738.23;108365;1257;63616;-67
2023/05/14 04:15:10;;;;;;;10.30;4.00;;;;;;;37.39;17.34;100734.31;108324;1254;66410;-66
2023/05/14 04:17:37;;;;;;;7.20;3.90;;;;;;;37.70;17.09;100733.98;108340;1251;62783;-68
2023/05/14 04:20:05;;;;;;;8.70;3.70;;;;;;;38.07;16.58;100733.42;108204;1251;59606;-69
2023/05/14 04:22:32;;;;;;;5.30;3.40;;;;;;;38.32;16.33;100737.71;108379;1256;66529;-67
2023/05/14 04:24:59;;;;;;;12.70;4.00;;;;;;;38.39;16.10;100736.84;108370;1251;63823;-67
2023/05/14 04:27:25;;;;;;;6.40;3.40;;;;;;;38.48;15.87;100736.94;108306;1251;65558;-67
2023/05/14 04:29:52;;;;;;;5.70;3.10;;;;;;;38.57;15.46;100734.32;108351;1257;58034;-68
2023/05/14 04:32:20;;;;;;;5.10;3.20;;;;;;;38.56;15.15;100730.23;108248;1251;59733;-66
2023/05/14 04:34:47;;;;;;;4.90;3.00;;;;;;;38.53;14.86;100726.59;108310;1252;65430;-67
2023/05/14 04:37:14;;;;;;;6.60;3.30;;;;;;;38.94;14.38;100729.58;108334;1251;62875;-68
2023/05/14 04:39:40;;;;;;;6.40;2.70;;;;;;;38.83;14.29;100732.15;108319;1251;65880;-68
2023/05/14 04:42:07;;;;;;;3.90;2.60;;;;;;;38.96;14.39;100733.14;108284;1251;59088;-67
2023/05/14 04:44:35;;;;;;;5.80;3.00;;;;;;;39.44;14.12;100732.23;108141;1251;59371;-67
2023/05/14 04:47:02;;;;;;;5.20;3.00;;;;;;;39.80;13.80;100735.77;108333;1250;65447;-67
2023/05/14 04:49:29;;;;;;;3.80;2.90;;;;;;;39.95;13.77;100736.95;108312;1251;63491;-67
2023/05/14 04:51:56;;;;;;;9.80;2.50;;;;;;;39.95;13.41;100743.28;108360;1255;64682;-66
2023/05/14 04:54:23;;;;;;;5.00;2.50;;;;;;;40.12;13.20;100741.90;108329;1257;59565;-67
2023/05/14 04:56:51;;;;;;;5.90;3.00;;;;;;;40.21;13.05;100740.19;108360;1251;59585;-64
2023/05/14 04:59:18;;;;;;;5.80;2.60;;;;;;;40.54;12.89;100741.99;108389;1251;66202;-68
2023/05/14 05:01:45;;;;;;;5.50;2.90;;;;;;;40.59;12.76;100741.07;108322;1251;63709;-68
2023/05/14 05:04:12;;;;;;;5.50;2.80;;;;;;;40.83;12.65;100745.39;108359;1251;64986;-67
2023/05/14 05:06:38;;;;;;;6.00;2.90;;;;;;;40.93;12.44;100741.75;108439;1253;59494;-66
2023/05/14 05:09:05;;;;;;;8.40;2.60;;;;;;;40.89;12.45;100744.75;108366;1251;60914;-66
2023/05/14 05:11:32;;;;;;;5.70;2.60;;;;;;;41.21;12.08;100744.60;108243;1251;65356;-67
2023/05/14 05:13:59;;;;;;;8.50;2.70;;;;;;;40.98;12.10;100747.75;108377;1251;62464;-66
2023/05/14 05:16:26;;;;;;;7.50;2.70;;;;;;;40.47;12.25;100742.88;108347;1251;64735;-66
2023/05/14 05:18:53;;;;;;;3.70;2.50;;;;;;;40.64;12.04;100744.28;108315;1251;59685;-68
2023/05/14 05:21:22;;;;;;;8.50;2.50;;;;;;;40.82;11.99;100748.71;108377;1251;59891;-66
2023/05/14 05:23:49;;;;;;;8.70;3.00;;;;;;;41.12;12.28;100746.18;108299;1251;65386;-68
2023/05/14 05:26:16;;;;;;;4.70;2.80;;;;;;;41.18;11.93;100745.09;108317;1251;63498;-66
2023/05/14 05:28:43;;;;;;;4.60;2.40;;;;;;;41.10;11.98;100745.98;108280;1251;64879;-67
2023/05/14 05:31:09;;;;;;;5.10;2.90;;;;;;;41.41;11.89;100743.73;108299;1257;59148;-67
2023/05/14 05:33:36;;;;;;;4.30;2.80;;;;;;;42.03;11.46;100743.36;108367;1251;59605;-66
2023/05/14 05:36:03;;;;;;;4.70;2.70;;;;;;;42.28;11.11;100741.21;108295;1251;65204;-67
2023/05/14 05:38:30;;;;;;;4.70;2.50;;;;;;;42.42;11.31;100743.30;108346;1250;63703;-67
2023/05/14 05:40:57;;;;;;;6.80;2.20;;;;;;;42.32;11.45;100740.81;108307;1251;64984;-66
2023/05/14 05:43:24;;;;;;;9.00;3.00;;;;;;;42.21;11.49;100736.66;108261;1257;59608;-66
2023/05/14 05:45:50;;;;;;;5.70;2.80;;;;;;;41.85;11.54;100742.77;108365;1251;59697;-66
2023/05/14 05:48:17;;;;;;;4.50;2.40;;;;;;;41.57;11.92;100745.12;108306;1251;65770;-68
2023/05/14 05:50:46;;;;;;;4.10;2.70;;;;;;;41.46;12.15;100742.70;108379;1255;63517;-67
2023/05/14 05:53:15;;;;;;;4.50;3.00;;;;;;;41.41;12.06;100746.67;108359;1251;64705;-68
2023/05/14 05:55:42;;;;;;;4.90;2.40;;;;;;;41.31;11.90;100745.31;108356;1251;59593;-67
2023/05/14 05:58:09;;;;;;;9.00;2.70;;;;;;;41.36;12.07;100742.48;108354;1251;59126;-67
2023/05/14 06:00:36;;;;;;;2.80;2.40;;;;;;;41.89;11.87;100741.55;108290;1250;66789;-67
2023/05/14 06:03:03;;;;;;;3.50;2.70;;;;;;;42.12;11.75;100742.23;108269;1251;63931;-66
2023/05/14 06:05:29;;;;;;;3.60;2.50;;;;;;;41.52;11.83;100742.58;108301;1251;64838;-68
2023/05/14 06:07:56;;;;;;;6.80;2.90;;;;;;;41.55;11.92;100739.33;108265;1251;59589;-67
2023/05/14 06:10:23;;;;;;;7.50;2.60;;;;;;;42.00;11.77;100738.98;108281;1252;59539;-67
2023/05/14 06:12:50;;;;;;;6.20;2.70;;;;;;;42.26;11.64;100739.83;108339;1251;65400;-67
2023/05/14 06:15:17;;;;;;;12.40;2.70;;;;;;;42.41;11.23;100741.14;108341;1250;64263;-67
2023/05/14 06:17:45;;;;;;;4.30;2.70;;;;;;;42.47;11.15;100743.33;108383;1251;64660;-67
2023/05/14 06:20:12;;;;;;;9.20;2.50;;;;;;;42.49;11.03;100739.83;108305;1256;59679;-68
2023/05/14 06:22:38;;;;;;;5.80;2.80;;;;;;;42.54;10.96;100741.88;108397;1251;59717;-67
2023/05/14 06:25:06;;;;;;;11.90;2.70;;;;;;;42.28;10.82;100740.80;108354;1251;66427;-69
2023/05/14 06:27:33;;;;;;;6.10;2.80;;;;;;;42.29;10.82;100736.66;108290;1251;63592;-69
2023/05/14 06:30:00;;;;;;;3.60;2.50;;;;;;;41.89;10.98;100736.80;108260;1251;65993;-69
2023/05/14 06:32:27;;;;;;;4.30;2.70;;;;;;;41.88;10.94;100734.68;108244;1251;59496;-66
2023/05/14 06:34:53;;;;;;;5.40;2.50;;;;;;;42.09;10.91;100736.23;108137;1251;60131;-67
2023/05/14 06:37:20;;;;;;;5.10;2.30;;;;;;;42.07;10.93;100732.77;108202;1251;74642;-68
2023/05/14 06:39:48;;;;;;;4.30;2.50;;;;;;;42.36;11.01;100729.69;108209;1251;63403;-66
2023/05/14 06:42:16;;;;;;;6.40;2.60;;;;;;;42.82;10.84;100727.95;108272;1251;66130;-66
2023/05/14 06:44:46;;;;;;;7.80;2.70;;;;;;;42.74;10.79;100731.20;108219;1251;59648;-66
2023/05/14 06:47:13;;;;;;;5.70;2.90;;;;;;;42.34;10.73;100732.77;108184;1251;59153;-68
2023/05/14 06:49:39;;;;;;;6.90;2.50;;;;;;;42.21;10.90;100731.39;108164;1251;66132;-67
2023/05/14 06:52:06;;;;;;;7.50;2.70;;;;;;;42.52;10.93;100730.44;108168;1251;62293;-68
2023/05/14 06:54:33;;;;;;;9.20;2.90;;;;;;;42.86;10.70;100731.10;108206;1251;65317;-67
2023/05/14 06:57:00;;;;;;;4.80;2.50;;;;;;;42.99;10.45;100729.78;108220;1251;59634;-69
2023/05/14 06:59:26;;;;;;;4.60;2.40;;;;;;;43.02;10.48;100730.54;108331;1251;59361;-68
2023/05/14 07:01:54;;;;;;;4.00;2.70;;;;;;;43.12;10.62;100727.95;108222;1251;65673;-69
2023/05/14 07:04:21;;;;;;;4.90;2.80;;;;;;;43.37;10.44;100728.53;108163;1251;63416;-68
2023/05/14 07:06:48;;;;;;;5.20;2.80;;;;;;;43.42;10.38;100727.31;108236;1251;65941;-66
2023/05/14 07:09:15;;;;;;;2.80;2.40;;;;;;;43.36;10.67;100724.48;108066;1255;59631;-67
2023/05/14 07:11:42;;;;;;;8.20;2.80;;;;;;;43.49;10.26;100725.45;108223;1251;59647;-68
2023/05/14 07:14:09;;;;;;;7.60;2.70;;;;;;;43.92;10.01;100724.14;108131;1254;66133;-67
2023/05/14 07:16:36;;;;;;;7.50;2.60;;;;;;;44.04;10.10;100720.95;108202;1254;63414;-67
2023/05/14 07:19:03;;;;;;;4.90;2.70;;;;;;;44.51;9.75;100721.30;108170;1254;66110;-67
2023/05/14 07:21:31;;;;;;;5.10;2.60;;;;;;;44.35;10.04;100722.63;108184;1254;60823;-69
2023/05/14 07:23:58;;;;;;;8.60;2.70;;;;;;;43.97;10.13;100717.23;108211;1254;60507;-67
2023/05/14 07:26:25;;;;;;;9.20;2.70;;;;;;;44.13;10.07;100718.80;108305;1257;65891;-68
2023/05/14 07:28:52;;;;;;;10.00;2.90;;;;;;;44.01;10.36;100721.80;108268;1251;64136;-67
2023/05/14 07:31:18;;;;;;;6.10;2.50;;;;;;;43.81;10.21;100721.45;108368;1251;65757;-69
2023/05/14 07:33:46;;;;;;;11.60;3.00;;;;;;;44.20;9.82;100717.25;108316;1251;60432;-69
2023/05/14 07:36:12;;;;;;;6.50;2.60;;;;;;;44.24;9.52;100712.61;108366;1251;60316;-68
2023/05/14 07:38:39;;;;;;;6.40;2.60;;;;;;;44.00;9.79;100711.98;108327;1251;66056;-69
2023/05/14 07:41:06;;;;;;;6.10;2.20;;;;;;;44.05;9.63;100713.41;108162;1251;62898;-68
2023/05/14 07:43:33;;;;;;;6.20;2.90;;;;;;;44.22;9.31;100710.71;108269;1251;64921;-69
2023/05/14 07:46:00;;;;;;;6.20;2.60;;;;;;;44.25;8.90;100709.29;108286;1254;60938;-68
2023/05/14 07:48:26;;;;;;;4.20;2.50;;;;;;;44.33;8.89;100706.35;108342;1251;59223;-69
2023/05/14 07:50:53;;;;;;;6.20;2.50;;;;;;;44.85;8.81;100709.27;108325;1251;66413;-68
2023/05/14 07:53:20;;;;;;;8.50;3.50;;;;;;;44.84;8.83;100710.77;108156;1251;63815;-68
2023/05/14 07:55:48;;;;;;;7.80;2.90;;;;;;;44.75;8.79;100709.56;108348;1254;66037;-69
2023/05/14 07:58:15;;;;;;;6.00;3.00;;;;;;;44.81;8.55;100710.59;108307;1251;60983;-69
2023/05/14 08:00:42;;;;;;;4.80;3.10;;;;;;;45.05;8.58;100705.64;108318;1251;60201;-69
2023/05/14 08:03:09;;;;;;;4.40;2.80;;;;;;;45.03;8.81;100702.19;108327;1251;67220;-69
2023/05/14 08:05:36;;;;;;;8.20;3.20;;;;;;;45.23;8.47;100703.42;108188;1251;63851;-68
2023/05/14 08:08:03;;;;;;;5.90;3.00;;;;;;;45.23;8.02;100702.89;108348;1253;64806;-69
2023/05/14 08:10:29;;;;;;;5.80;2.90;;;;;;;45.03;7.69;100707.08;108323;1251;60442;-71
2023/05/14 08:12:57;;;;;;;7.20;2.50;;;;;;;44.79;7.70;100707.80;108334;1254;60345;-68
2023/05/14 08:15:23;;;;;;;6.40;2.40;;;;;;;44.39;7.91;100700.94;108355;1253;65773;-67
2023/05/14 08:17:53;;;;;;;5.70;2.60;;;;;;;44.23;8.22;100700.90;108256;1254;63578;-67
2023/05/14 08:20:21;;;;;;;6.00;2.20;;;;;;;44.19;8.17;100698.76;108003;1253;64113;-70
2023/05/14 08:22:48;;;;;;;8.80;2.10;;;;;;;44.42;7.83;100695.75;108262;1253;60500;-70
2023/05/14 08:25:15;;;;;;;6.70;2.10;;;;;;;44.45;8.00;100695.42;108163;1253;60955;-69
2023/05/14 08:27:42;;;;;;;4.30;2.30;;;;;;;44.87;7.94;100692.67;108197;1254;67080;-69
2023/05/14 08:30:09;;;;;;;7.20;1.90;;;;;;;44.78;7.93;100693.23;108246;1254;62596;-68
2023/05/14 08:32:37;;;;;;;6.60;2.20;;;;;;;43.96;8.44;100683.83;108180;1257;65130;-70
2023/05/14 08:35:04;;;;;;;21.00;12.10;;;;;;;42.93;8.96;100681.40;108164;1253;60460;-69
2023/05/14 08:37:31;;;;;;;10.70;5.00;;;;;;;42.41;9.35;100683.15;108253;1253;60399;-69
2023/05/14 08:39:58;;;;;;;5.70;2.80;;;;;;;41.95;9.19;100682.75;108217;1253;66192;-69
2023/05/14 08:42:25;;;;;;;8.30;2.40;;;;;;;42.18;9.49;100673.52;108067;1253;63796;-68
2023/05/14 08:44:57;;;;;;;7.10;2.20;;;;;;;42.80;9.34;100667.09;108192;1253;65181;-69
2023/05/14 08:47:24;;;;;;;9.90;3.40;;;;;;;43.11;8.87;100666.77;108107;1253;60292;-67
2023/05/14 08:50:00;;;;;;;5.70;2.40;;;;;;;43.50;8.86;100662.91;108067;1253;60341;-66
2023/05/14 08:52:27;;;;;;;5.70;2.50;;;;;;;43.49;8.73;100664.40;108216;1252;66013;-69
2023/05/14 08:54:54;;;;;;;10.20;2.90;;;;;;;43.54;8.58;100664.28;108226;1254;63665;-70
2023/05/14 08:57:23;;;;;;;9.50;2.60;;;;;;;43.30;8.75;100661.16;108069;1253;66534;-69
2023/05/14 08:59:50;;;;;;;6.40;2.70;;;;;;;43.69;8.65;100659.55;108109;1254;60423;-69
2023/05/14 09:02:18;;;;;;;12.60;2.60;;;;;;;43.86;8.48;100661.86;108314;1253;60280;-69
2023/05/14 09:04:44;;;;;;;8.40;2.30;;;;;;;43.65;8.49;100662.34;108294;1255;67336;-69
2023/05/14 09:07:11;;;;;;;4.60;2.30;;;;;;;43.28;8.43;100660.42;108024;1254;63596;-68
2023/05/14 09:09:38;;;;;;;6.60;2.70;;;;;;;43.16;8.65;100658.34;108095;1254;66138;-69
2023/05/14 09:12:05;;;;;;;5.90;2.60;;;;;;;43.15;8.72;100659.54;108324;1254;60511;-69
2023/05/14 09:14:32;;;;;;;8.40;2.90;;;;;;;42.90;8.90;100660.35;108378;1250;60293;-69
2023/05/14 09:16:59;;;;;;;4.20;2.20;;;;;;;42.29;9.26;100663.27;108348;1251;67328;-68
2023/05/14 09:19:26;;;;;;;5.00;2.30;;;;;;;42.12;9.53;100660.70;108362;1250;63380;-68
2023/05/14 09:21:56;;;;;;;6.60;2.50;;;;;;;41.38;9.39;100660.20;108237;1253;65011;-68
2023/05/14 09:24:24;;;;;;;8.00;3.40;;;;;;;40.75;9.64;100660.70;108256;1251;60422;-69
2023/05/14 09:26:53;;;;;;;7.20;3.50;;;;;;;40.50;9.93;100658.02;108386;1251;60313;-67
2023/05/14 09:29:20;;;;;;;8.50;2.90;;;;;;;40.54;10.27;100657.10;108448;1251;67582;-67
2023/05/14 09:31:49;;;;;;;6.30;3.00;;;;;;;40.68;10.33;100655.54;108383;1251;62744;-69
2023/05/14 09:34:32;;;;;;;6.80;3.40;;;;;;;40.79;10.42;100655.50;108297;1251;66488;-68
2023/05/14 09:37:03;;;;;;;7.70;2.60;;;;;;;40.67;10.17;100656.02;108331;1252;60433;-69
2023/05/14 09:39:31;;;;;;;8.60;3.30;;;;;;;40.60;10.26;100654.96;108386;1251;60689;-69
2023/05/14 09:41:58;;;;;;;9.80;3.20;;;;;;;40.71;10.36;100651.91;108401;1251;67374;-68
2023/05/14 09:44:26;;;;;;;9.80;3.50;;;;;;;40.74;10.43;100649.05;108392;1250;63641;-69
2023/05/14 09:46:53;;;;;;;8.50;3.20;;;;;;;40.67;10.28;100646.13;108314;1251;65970;-69
2023/05/14 09:49:20;;;;;;;4.30;2.70;;;;;;;40.53;10.10;100642.13;108300;1251;60357;-68
2023/05/14 09:51:47;;;;;;;4.30;2.60;;;;;;;40.51;10.23;100641.84;108366;1251;60504;-67
2023/05/14 09:54:14;;;;;;;4.40;2.70;;;;;;;40.40;10.30;100641.43;108353;1256;67068;-68
2023/05/14 09:56:42;;;;;;;4.50;2.80;;;;;;;40.55;10.33;100638.63;108288;1251;62916;-68
2023/05/14 09:59:08;;;;;;;4.30;2.50;;;;;;;40.65;10.42;100640.39;108283;1251;65129;-69
2023/05/14 10:01:35;;;;;;;5.80;2.80;;;;;;;40.81;10.40;100637.81;108289;1253;60325;-68
2023/05/14 10:04:03;;;;;;;6.30;3.40;;;;;;;40.70;10.10;100633.05;108209;1252;59642;-69
2023/05/14 10:06:32;;;;;;;17.30;10.50;;;;;;;40.66;10.20;100631.70;108186;1251;67049;-67
2023/05/14 10:09:04;;;;;;;10.00;4.50;;;;;;;40.53;10.19;100632.18;108363;1251;62412;-68
2023/05/14 10:11:36;;;;;;;11.90;3.60;;;;;;;40.43;10.36;100631.09;108360;1252;66177;-69
2023/05/14 10:14:17;;;;;;;8.30;2.90;;;;;;;40.24;10.68;100635.55;108323;1251;60408;-69
2023/05/14 10:16:49;;;;;;;7.70;3.60;;;;;;;40.29;10.51;100631.20;108349;1256;60437;-68
2023/05/14 10:19:17;;;;;;;9.30;3.10;;;;;;;40.27;10.52;100631.98;108430;1253;66032;-70
2023/05/14 10:21:47;;;;;;;8.40;6.10;;;;;;;40.17;10.54;100629.14;108412;1251;63730;-68
2023/05/14 10:24:14;;;;;;;12.00;7.10;;;;;;;40.37;10.30;100623.62;108361;1251;65885;-70
2023/05/14 10:26:41;;;;;;;9.60;5.60;;;;;;;40.50;10.43;100621.30;108242;1251;60320;-69
2023/05/14 10:29:11;;;;;;;9.10;4.10;;;;;;;40.86;10.36;100620.52;108127;1251;61400;-67
2023/05/14 10:31:54;;;;;;;8.90;6.00;;;;;;;40.69;10.28;100616.19;108316;1251;67314;-68
2023/05/14 10:34:44;;;;;;;8.20;5.70;;;;;;;40.50;10.45;100614.46;108311;1256;63571;-68
2023/05/14 10:37:13;;;;;;;8.90;4.30;;;;;;;40.60;10.43;100613.08;108325;1252;65801;-69
2023/05/14 10:39:42;;;;;;;11.00;3.60;;;;;;;40.65;10.15;100610.64;108407;1250;60338;-70
2023/05/14 10:42:29;;;;;;;7.50;3.60;;;;;;;40.81;10.04;100607.73;108355;1250;59225;-68
2023/05/14 10:44:57;;;;;;;16.90;8.10;;;;;;;40.61;10.21;100607.42;108326;1250;66018;-70
2023/05/14 10:47:25;;;;;;;10.20;4.60;;;;;;;40.48;10.39;100606.20;108096;1258;63873;-69
2023/05/14 10:49:53;;;;;;;5.30;3.40;;;;;;;40.11;10.61;100607.34;108130;1251;66270;-68
2023/05/14 10:52:20;;;;;;;8.90;3.70;;;;;;;40.22;10.27;100604.89;108275;1252;60529;-68
2023/05/14 10:54:49;;;;;;;6.60;2.60;;;;;;;40.58;9.83;100602.65;108286;1250;60234;-69
2023/05/14 10:57:17;;;;;;;6.40;2.60;;;;;;;40.94;9.23;100593.73;108295;1251;65992;-69
2023/05/14 10:59:46;;;;;;;4.40;3.00;;;;;;;41.33;9.01;100594.48;108348;1251;63726;-69
2023/05/14 11:02:36;;;;;;;7.10;3.00;;;;;;;41.53;8.86;100593.27;108345;1250;66220;-69
2023/05/14 11:05:12;;;;;;;6.20;2.70;;;;;;;42.02;9.23;100592.64;108344;1250;60555;-69
2023/05/14 11:07:44;;;;;;;9.40;3.00;;;;;;;42.62;9.31;100591.15;108337;1251;60306;-69
2023/05/14 11:10:20;;;;;;;8.70;3.00;;;;;;;42.79;9.19;100589.48;108433;1250;65857;-70
2023/05/14 11:12:49;;;;;;;7.80;3.30;;;;;;;43.22;9.21;100591.35;108311;1250;63624;-68
2023/05/14 11:15:20;;;;;;;4.70;2.70;;;;;;;43.72;9.23;100586.73;108321;1251;66293;-69
2023/05/14 11:17:48;;;;;;;6.40;3.20;;;;;;;43.71;8.43;100581.52;108323;1254;60984;-71
2023/05/14 11:20:18;;;;;;;9.40;3.30;;;;;;;43.38;8.27;100579.74;108421;1255;59091;-69
2023/05/14 11:22:46;;;;;;;7.30;3.30;;;;;;;43.25;8.45;100582.17;108103;1251;67163;-69